createdAt,value
2023-04-26T00:00:55.345Z,2.88
2023-04-26T00:03:23.265Z,2.63
2023-04-26T00:05:50.693Z,2.58
2023-04-26T00:08:17.739Z,2.70
2023-04-26T00:10:44.678Z,2.20
2023-04-26T00:13:11.640Z,2.22
2023-04-26T00:15:38.582Z,2.15
2023-04-26T00:18:05.990Z,2.70
2023-04-26T00:20:33.499Z,2.40
2023-04-26T00:23:00.421Z,2.20
2023-04-26T00:25:27.365Z,2.05
2023-04-26T00:27:54.322Z,1.98
2023-04-26T00:30:22.352Z,2.17
2023-04-26T00:32:49.793Z,1.88
2023-04-26T00:35:16.836Z,2.30
2023-04-26T00:37:43.999Z,2.17
2023-04-26T00:40:12.177Z,2.50
2023-04-26T00:42:40.327Z,1.80
2023-04-26T00:45:08.381Z,1.95
2023-04-26T00:47:36.350Z,1.92
2023-04-26T00:50:04.571Z,1.85
2023-04-26T00:52:32.167Z,2.13
2023-04-26T00:54:59.273Z,1.65
2023-04-26T00:57:26.309Z,2.10
2023-04-26T00:59:53.454Z,2.00
2023-04-26T01:02:20.911Z,1.98
2023-04-26T01:04:48.662Z,1.80
2023-04-26T01:07:17.141Z,2.15
2023-04-26T01:09:44.478Z,1.85
2023-04-26T01:12:13.067Z,2.03
2023-04-26T01:14:41.043Z,1.77
2023-04-26T01:17:08.063Z,2.10
2023-04-26T01:19:37.414Z,2.13
2023-04-26T01:22:04.435Z,2.38
2023-04-26T01:24:32.921Z,1.83
2023-04-26T01:26:59.859Z,2.08
2023-04-26T01:29:27.319Z,2.65
2023-04-26T01:31:54.245Z,1.80
2023-04-26T01:34:21.702Z,2.10
2023-04-26T01:36:48.610Z,2.10
2023-04-26T01:39:15.762Z,2.38
2023-04-26T01:41:42.951Z,2.33
2023-04-26T01:44:09.913Z,1.83
2023-04-26T01:46:37.115Z,2.35
2023-04-26T01:49:04.845Z,2.38
2023-04-26T01:51:32.580Z,2.80
2023-04-26T01:53:59.686Z,2.40
2023-04-26T01:56:26.813Z,2.72
2023-04-26T01:58:56.251Z,2.38
2023-04-26T02:01:23.753Z,2.53
2023-04-26T02:03:51.205Z,2.30
2023-04-26T02:06:20.279Z,2.03
2023-04-26T02:08:47.296Z,2.65
2023-04-26T02:11:14.221Z,2.47
2023-04-26T02:13:41.248Z,2.20
2023-04-26T02:16:08.300Z,2.60
2023-04-26T02:18:35.434Z,2.60
2023-04-26T02:21:02.408Z,2.58
2023-04-26T02:23:31.511Z,2.17
2023-04-26T02:25:58.552Z,2.17
2023-04-26T02:28:25.520Z,1.77
2023-04-26T02:30:56.679Z,2.40
2023-04-26T02:33:24.567Z,2.25
2023-04-26T02:35:51.933Z,1.77
2023-04-26T02:38:19.676Z,2.00
2023-04-26T02:40:46.671Z,2.45
2023-04-26T02:43:14.064Z,1.80
2023-04-26T02:45:42.975Z,2.00
2023-04-26T02:48:11.796Z,2.00
2023-04-26T02:50:39.309Z,2.13
2023-04-26T02:53:06.403Z,1.80
2023-04-26T02:55:33.787Z,2.58
2023-04-26T02:58:00.770Z,1.50
2023-04-26T03:00:28.514Z,1.75
2023-04-26T03:02:56.906Z,1.63
2023-04-26T03:05:24.501Z,1.92
2023-04-26T03:07:51.912Z,2.13
2023-04-26T03:10:18.872Z,1.83
2023-04-26T03:12:45.815Z,1.77
2023-04-26T03:15:12.756Z,1.63
2023-04-26T03:17:43.060Z,1.90
2023-04-26T03:20:11.565Z,1.70
2023-04-26T03:22:39.053Z,1.50
2023-04-26T03:25:07.760Z,2.17
2023-04-26T03:27:34.906Z,1.48
2023-04-26T03:30:01.916Z,1.30
2023-04-26T03:32:31.071Z,1.80
2023-04-26T03:34:58.571Z,1.70
2023-04-26T03:37:25.651Z,1.70
2023-04-26T03:39:59.111Z,1.73
2023-04-26T03:42:26.176Z,1.67
2023-04-26T03:44:54.185Z,1.95
2023-04-26T03:47:22.514Z,1.73
2023-04-26T03:49:49.710Z,1.75
2023-04-26T03:52:16.803Z,1.58
2023-04-26T03:54:43.731Z,1.98
2023-04-26T03:57:11.792Z,2.10
2023-04-26T03:59:38.828Z,1.98
2023-04-26T04:02:06.180Z,1.58
2023-04-26T04:04:33.393Z,1.60
2023-04-26T04:07:00.869Z,1.65
2023-04-26T04:09:27.793Z,1.58
2023-04-26T04:11:54.840Z,1.40
2023-04-26T04:14:21.835Z,1.60
2023-04-26T04:16:48.851Z,1.40
2023-04-26T04:19:15.871Z,1.50
2023-04-26T04:21:43.510Z,1.25
2023-04-26T04:24:11.391Z,1.67
2023-04-26T04:26:39.028Z,1.30
2023-04-26T04:29:09.198Z,1.60
2023-04-26T04:31:38.449Z,1.23
2023-04-26T04:34:05.481Z,5.82
2023-04-26T04:36:33.949Z,13.63
2023-04-26T04:39:00.879Z,6.05
2023-04-26T04:41:27.874Z,3.20
2023-04-26T04:43:55.166Z,2.85
2023-04-26T04:46:23.363Z,2.72
2023-04-26T04:48:50.651Z,2.30
2023-04-26T04:51:17.752Z,2.25
2023-04-26T04:53:44.706Z,1.83
2023-04-26T04:56:11.906Z,1.58
2023-04-26T04:58:39.047Z,2.05
2023-04-26T05:01:06.190Z,1.38
2023-04-26T05:03:45.689Z,1.20
2023-04-26T05:06:13.281Z,1.40
2023-04-26T05:08:40.757Z,1.60
2023-04-26T05:11:09.021Z,1.33
2023-04-26T05:13:36.813Z,1.45
2023-04-26T05:16:04.819Z,1.20
2023-04-26T05:18:32.094Z,1.30
2023-04-26T05:20:59.311Z,1.20
2023-04-26T05:23:27.367Z,1.42
2023-04-26T05:25:54.420Z,1.30
2023-04-26T05:28:53.538Z,1.15
2023-04-26T05:31:29.353Z,1.45
2023-04-26T05:34:16.626Z,1.42
2023-04-26T05:36:48.694Z,1.33
2023-04-26T05:39:15.831Z,1.20
2023-04-26T05:41:43.153Z,1.33
2023-04-26T05:44:10.839Z,1.45
2023-04-26T05:46:38.330Z,1.38
2023-04-26T05:49:05.584Z,1.73
2023-04-26T05:51:33.996Z,1.83
2023-04-26T05:54:01.137Z,2.15
2023-04-26T05:56:30.932Z,2.00
2023-04-26T05:58:58.425Z,1.73
2023-04-26T06:01:25.832Z,1.58
2023-04-26T06:03:55.184Z,1.73
2023-04-26T06:06:24.175Z,1.80
2023-04-26T06:08:51.534Z,1.90
2023-04-26T06:11:18.597Z,1.85
2023-04-26T06:13:45.737Z,2.00
2023-04-26T06:16:12.727Z,1.55
2023-04-26T06:18:39.756Z,1.50
2023-04-26T06:21:07.030Z,2.20
2023-04-26T06:23:33.951Z,2.67
2023-04-26T06:26:01.073Z,2.53
2023-04-26T06:28:28.108Z,2.20
2023-04-26T06:30:55.092Z,1.70
2023-04-26T06:33:22.153Z,1.95
2023-04-26T06:35:49.100Z,1.65
2023-04-26T06:38:16.117Z,1.85
2023-04-26T06:40:43.277Z,2.28
2023-04-26T06:43:10.880Z,1.77
2023-04-26T06:45:37.802Z,1.98
2023-04-26T06:48:05.408Z,1.98
2023-04-26T06:50:33.280Z,2.03
2023-04-26T06:53:00.462Z,1.88
2023-04-26T06:55:27.446Z,1.75
2023-04-26T06:57:54.367Z,2.13
2023-04-26T07:00:21.944Z,1.88
2023-04-26T07:02:48.953Z,2.13
2023-04-26T07:05:16.091Z,2.80
2023-04-26T07:07:43.191Z,2.17
2023-04-26T07:10:10.485Z,2.13
2023-04-26T07:12:37.451Z,2.30
2023-04-26T07:15:06.710Z,1.95
2023-04-26T07:17:33.882Z,2.42
2023-04-26T07:20:00.943Z,2.40
2023-04-26T07:22:28.126Z,2.30
2023-04-26T07:24:55.051Z,1.98
2023-04-26T07:27:22.034Z,2.15
2023-04-26T07:29:48.939Z,2.17
2023-04-26T07:32:16.104Z,2.45
2023-04-26T07:34:43.048Z,2.45
2023-04-26T07:37:09.973Z,2.30
2023-04-26T07:39:36.913Z,2.60
2023-04-26T07:42:03.987Z,2.65
2023-04-26T07:44:30.902Z,2.60
2023-04-26T07:46:57.956Z,2.33
2023-04-26T07:49:25.003Z,2.05
2023-04-26T07:51:52.413Z,2.00
2023-04-26T07:54:19.411Z,1.80
2023-04-26T07:56:46.416Z,2.25
2023-04-26T07:59:13.360Z,2.05
2023-04-26T08:01:40.612Z,2.05
2023-04-26T08:04:08.762Z,2.00
2023-04-26T08:06:36.129Z,2.08
2023-04-26T08:09:04.926Z,1.95
2023-04-26T08:11:31.933Z,2.05
2023-04-26T08:13:58.856Z,2.50
2023-04-26T08:16:25.865Z,2.92
2023-04-26T08:18:52.851Z,2.38
2023-04-26T08:21:19.775Z,1.95
2023-04-26T08:23:46.842Z,2.20
2023-04-26T08:26:13.784Z,1.65
2023-04-26T08:28:40.957Z,2.13
2023-04-26T08:31:08.234Z,1.80
2023-04-26T08:33:35.276Z,2.05
2023-04-26T08:36:02.287Z,1.90
2023-04-26T08:38:29.574Z,2.00
2023-04-26T08:41:01.871Z,1.60
2023-04-26T08:43:29.745Z,1.48
2023-04-26T08:45:59.515Z,1.67
2023-04-26T08:48:30.342Z,1.50
2023-04-26T08:50:57.543Z,1.50
2023-04-26T08:53:26.104Z,1.67
2023-04-26T08:55:54.263Z,1.95
2023-04-26T08:58:22.439Z,1.90
2023-04-26T09:00:50.928Z,1.67
2023-04-26T09:03:23.069Z,1.92
2023-04-26T09:05:50.716Z,1.67
2023-04-26T09:08:18.183Z,1.90
2023-04-26T09:10:45.496Z,2.05
2023-04-26T09:13:12.889Z,1.73
2023-04-26T09:15:40.434Z,1.80
2023-04-26T09:18:23.682Z,1.95
2023-04-26T09:21:08.728Z,1.75
2023-04-26T09:23:35.970Z,1.52
2023-04-26T09:26:20.836Z,1.58
2023-04-26T09:28:48.291Z,1.58
2023-04-26T09:31:40.689Z,1.67
2023-04-26T09:34:11.288Z,1.20
2023-04-26T09:36:47.336Z,1.45
2023-04-26T09:39:14.589Z,1.73
2023-04-26T09:41:45.357Z,1.65
2023-04-26T09:44:23.223Z,1.40
2023-04-26T09:47:10.205Z,1.80
2023-04-26T09:49:50.302Z,1.88
2023-04-26T09:52:19.231Z,1.75
2023-04-26T09:54:52.417Z,1.90
2023-04-26T09:57:22.037Z,1.48
2023-04-26T09:59:53.524Z,1.38
2023-04-26T10:02:27.578Z,1.58
2023-04-26T10:04:57.286Z,1.75
2023-04-26T10:07:26.593Z,1.52
2023-04-26T10:09:54.520Z,1.75
2023-04-26T10:12:22.581Z,1.90
2023-04-26T10:14:49.606Z,1.80
2023-04-26T10:17:18.774Z,2.03
2023-04-26T10:19:48.257Z,1.55
2023-04-26T10:22:25.314Z,1.60
2023-04-26T10:24:54.581Z,1.40
2023-04-26T10:27:43.439Z,1.75
2023-04-26T10:30:17.966Z,2.10
2023-04-26T10:32:57.294Z,1.90
2023-04-26T10:35:30.876Z,1.50
2023-04-26T10:38:00.513Z,1.70
2023-04-26T10:40:36.160Z,1.80
2023-04-26T10:43:11.974Z,2.05
2023-04-26T10:45:40.228Z,1.27
2023-04-26T10:48:32.836Z,1.58
2023-04-26T10:51:05.403Z,1.50
2023-04-26T10:53:34.693Z,1.85
2023-04-26T10:56:01.684Z,1.90
2023-04-26T10:58:41.843Z,1.92
2023-04-26T11:01:20.491Z,2.25
2023-04-26T11:03:56.969Z,1.92
2023-04-26T11:06:26.672Z,1.67
2023-04-26T11:08:54.654Z,2.00
2023-04-26T11:11:26.857Z,1.88
2023-04-26T11:13:53.814Z,1.50
2023-04-26T11:16:20.875Z,2.42
2023-04-26T11:18:48.355Z,1.77
2023-04-26T11:21:18.157Z,1.67
2023-04-26T11:23:54.830Z,1.57
2023-04-26T11:26:22.684Z,1.42
2023-04-26T11:28:49.755Z,1.50
2023-04-26T11:31:19.286Z,1.52
2023-04-26T11:33:48.478Z,1.70
2023-04-26T11:36:19.461Z,1.80
2023-04-26T11:38:46.524Z,1.38
2023-04-26T11:41:13.527Z,1.58
2023-04-26T11:43:40.774Z,1.77
2023-04-26T11:46:09.995Z,1.60
2023-04-26T11:48:39.262Z,1.88
2023-04-26T11:51:08.386Z,1.38
2023-04-26T11:53:40.790Z,1.50
2023-04-26T11:56:20.649Z,1.48
2023-04-26T11:58:50.101Z,1.50
2023-04-26T12:01:30.032Z,1.52
2023-04-26T12:04:00.848Z,1.50
2023-04-26T12:06:43.199Z,1.90
2023-04-26T12:09:11.249Z,1.73
2023-04-26T12:11:39.611Z,1.83
2023-04-26T12:14:09.789Z,1.50
2023-04-26T12:16:37.323Z,1.80
2023-04-26T12:19:08.983Z,1.60
2023-04-26T12:21:43.573Z,1.40
2023-04-26T12:24:33.299Z,1.50
2023-04-26T12:27:02.823Z,1.50
2023-04-26T12:29:31.901Z,1.60
2023-04-26T12:32:00.500Z,1.13
2023-04-26T12:34:27.866Z,1.20
2023-04-26T12:36:54.978Z,1.73
2023-04-26T12:39:21.965Z,1.42
2023-04-26T12:41:49.338Z,1.27
2023-04-26T12:44:16.535Z,1.13
2023-04-26T12:46:43.951Z,1.20
2023-04-26T12:49:10.968Z,1.20
2023-04-26T12:51:40.749Z,1.55
2023-04-26T12:54:07.831Z,1.60
2023-04-26T12:56:37.843Z,1.35
2023-04-26T12:59:04.830Z,1.60
2023-04-26T13:01:31.870Z,1.73
2023-04-26T13:04:00.980Z,1.55
2023-04-26T13:06:28.598Z,1.50
2023-04-26T13:08:55.849Z,1.30
2023-04-26T13:11:22.856Z,1.30
2023-04-26T13:13:49.783Z,1.60
2023-04-26T13:16:16.840Z,1.27
2023-04-26T13:18:43.925Z,1.42
2023-04-26T13:21:10.822Z,1.42
2023-04-26T13:23:37.761Z,1.58
2023-04-26T13:26:04.993Z,1.60
2023-04-26T13:28:31.931Z,1.20
2023-04-26T13:30:59.535Z,1.30
2023-04-26T13:33:26.592Z,1.52
2023-04-26T13:35:53.543Z,1.58
2023-04-26T13:38:20.482Z,1.67
2023-04-26T13:40:47.516Z,1.17
2023-04-26T13:43:14.448Z,1.48
2023-04-26T13:45:41.382Z,1.23
2023-04-26T13:48:08.378Z,1.50
2023-04-26T13:50:37.380Z,1.33
2023-04-26T13:53:04.715Z,1.40
2023-04-26T13:55:31.660Z,1.27
2023-04-26T13:57:58.839Z,1.30
2023-04-26T14:00:25.952Z,1.38
2023-04-26T14:02:54.190Z,1.60
2023-04-26T14:05:21.613Z,1.75
2023-04-26T14:07:48.651Z,1.27
2023-04-26T14:10:15.907Z,1.80
2023-04-26T14:12:42.916Z,1.52
2023-04-26T14:15:10.490Z,1.52
2023-04-26T14:17:37.552Z,1.38
2023-04-26T14:20:05.435Z,1.60
2023-04-26T14:22:32.405Z,1.25
2023-04-26T14:24:59.450Z,1.50
2023-04-26T14:27:26.841Z,1.55
2023-04-26T14:29:53.773Z,1.50
2023-04-26T14:32:20.783Z,1.52
2023-04-26T14:34:47.720Z,1.60
2023-04-26T14:37:15.159Z,1.58
2023-04-26T14:39:42.740Z,1.42
2023-04-26T14:42:11.149Z,1.48
2023-04-26T14:44:38.069Z,1.63
2023-04-26T14:47:05.009Z,1.50
2023-04-26T14:49:31.936Z,1.52
2023-04-26T14:51:58.920Z,1.48
2023-04-26T14:54:25.916Z,1.40
2023-04-26T14:56:53.625Z,1.75
2023-04-26T14:59:21.037Z,1.25
2023-04-26T15:01:48.545Z,1.30
2023-04-26T15:04:15.709Z,1.60
2023-04-26T15:06:42.854Z,1.40
2023-04-26T15:09:11.393Z,1.38
2023-04-26T15:11:38.489Z,1.40
2023-04-26T15:14:05.413Z,1.60
2023-04-26T15:16:32.458Z,1.30
2023-04-26T15:18:59.457Z,1.20
2023-04-26T15:21:27.313Z,1.80
2023-04-26T15:23:56.185Z,1.30
2023-04-26T15:26:23.338Z,1.35
2023-04-26T15:28:51.096Z,1.67
2023-04-26T15:31:18.046Z,1.73
2023-04-26T15:33:44.970Z,1.83
2023-04-26T15:36:11.876Z,1.58
2023-04-26T15:38:39.425Z,1.67
2023-04-26T15:41:06.493Z,1.65
2023-04-26T15:43:33.667Z,1.48
2023-04-26T15:46:03.644Z,1.55
2023-04-26T15:48:30.803Z,1.40
2023-04-26T15:50:57.887Z,1.50
2023-04-26T15:53:25.134Z,1.10
2023-04-26T15:55:52.081Z,1.65
2023-04-26T15:58:19.041Z,1.30
2023-04-26T16:00:45.975Z,1.20
2023-04-26T16:03:13.073Z,1.55
2023-04-26T16:05:40.195Z,1.13
2023-04-26T16:08:07.260Z,1.30
2023-04-26T16:10:35.364Z,1.65
2023-04-26T16:13:03.823Z,1.48
2023-04-26T16:15:31.576Z,1.48
2023-04-26T16:17:58.621Z,1.50
2023-04-26T16:20:25.974Z,1.48
2023-04-26T16:22:52.976Z,1.80
2023-04-26T16:25:20.024Z,1.60
2023-04-26T16:27:49.370Z,1.65
2023-04-26T16:30:16.456Z,1.42
2023-04-26T16:32:43.499Z,1.23
2023-04-26T16:35:10.931Z,1.27
2023-04-26T16:37:39.821Z,1.88
2023-04-26T16:40:10.526Z,1.65
2023-04-26T16:42:37.523Z,1.65
2023-04-26T16:45:04.981Z,1.63
2023-04-26T16:47:31.918Z,1.40
2023-04-26T16:49:58.844Z,1.73
2023-04-26T16:52:25.919Z,1.25
2023-04-26T16:54:52.862Z,1.63
2023-04-26T16:57:19.823Z,1.52
2023-04-26T16:59:47.078Z,2.13
2023-04-26T17:02:14.157Z,2.03
2023-04-26T17:04:41.884Z,1.58
2023-04-26T17:07:09.398Z,1.65
2023-04-26T17:09:38.519Z,2.00
2023-04-26T17:12:07.248Z,2.03
2023-04-26T17:14:34.607Z,2.15
2023-04-26T17:17:01.620Z,1.67
2023-04-26T17:19:29.182Z,1.55
2023-04-26T17:21:56.160Z,1.80
2023-04-26T17:24:23.184Z,1.60
2023-04-26T17:26:50.174Z,2.05
2023-04-26T17:29:17.153Z,1.70
2023-04-26T17:31:44.466Z,1.90
2023-04-26T17:34:11.614Z,1.58
2023-04-26T17:36:38.563Z,1.63
2023-04-26T17:39:06.330Z,1.45
2023-04-26T17:41:33.389Z,1.33
2023-04-26T17:44:00.445Z,1.65
2023-04-26T17:46:27.586Z,1.83
2023-04-26T17:48:55.335Z,1.33
2023-04-26T17:51:22.281Z,1.38
2023-04-26T17:53:49.216Z,1.60
2023-04-26T17:56:16.148Z,1.20
2023-04-26T17:58:43.077Z,1.40
2023-04-26T18:01:10.008Z,1.13
2023-04-26T18:03:37.077Z,1.30
2023-04-26T18:06:04.535Z,1.45
2023-04-26T18:08:31.472Z,1.48
2023-04-26T18:10:58.654Z,1.20
2023-04-26T18:13:25.576Z,1.50
2023-04-26T18:15:55.027Z,1.08
2023-04-26T18:18:21.968Z,1.10
2023-04-26T18:20:48.879Z,1.02
2023-04-26T18:23:16.304Z,1.05
2023-04-26T18:25:43.319Z,1.52
2023-04-26T18:28:10.563Z,0.85
2023-04-26T18:30:37.531Z,1.20
2023-04-26T18:33:05.049Z,1.00
2023-04-26T18:35:32.089Z,1.17
2023-04-26T18:37:59.010Z,1.00
2023-04-26T18:40:26.069Z,1.40
2023-04-26T18:42:53.034Z,1.00
2023-04-26T18:45:19.986Z,1.10
2023-04-26T18:47:47.328Z,1.05
2023-04-26T18:50:14.637Z,1.00
2023-04-26T18:52:41.711Z,1.00
2023-04-26T18:55:09.362Z,1.33
2023-04-26T18:57:37.843Z,1.17
2023-04-26T19:00:06.666Z,0.90
2023-04-26T19:02:36.142Z,0.82
2023-04-26T19:05:04.607Z,1.08
2023-04-26T19:07:31.677Z,1.50
2023-04-26T19:10:00.813Z,1.13
2023-04-26T19:12:28.102Z,1.40
2023-04-26T19:14:55.333Z,1.20
2023-04-26T19:17:22.808Z,1.00
2023-04-26T19:19:53.851Z,1.10
2023-04-26T19:22:20.880Z,1.00
2023-04-26T19:24:52.696Z,0.93
2023-04-26T19:27:19.639Z,1.17
2023-04-26T19:29:46.650Z,1.10
2023-04-26T19:32:14.448Z,0.98
2023-04-26T19:34:41.541Z,1.10
2023-04-26T19:37:08.528Z,1.13
2023-04-26T19:39:35.486Z,1.00
2023-04-26T19:42:03.377Z,1.13
2023-04-26T19:44:31.307Z,1.30
2023-04-26T19:46:58.355Z,1.40
2023-04-26T19:49:27.204Z,1.05
2023-04-26T19:51:55.542Z,1.00
2023-04-26T19:54:22.565Z,1.10
2023-04-26T19:56:49.512Z,1.13
2023-04-26T19:59:16.456Z,0.80
2023-04-26T20:01:43.500Z,1.15
2023-04-26T20:04:10.568Z,1.10
2023-04-26T20:06:37.696Z,1.10
2023-04-26T20:09:06.674Z,1.00
2023-04-26T20:11:33.840Z,1.05
2023-04-26T20:14:01.094Z,1.00
2023-04-26T20:16:28.540Z,1.02
2023-04-26T20:18:55.595Z,0.85
2023-04-26T20:21:22.571Z,0.93
2023-04-26T20:23:49.544Z,0.95
2023-04-26T20:26:16.500Z,1.00
2023-04-26T20:28:43.550Z,1.30
2023-04-26T20:31:10.859Z,0.85
2023-04-26T20:33:37.941Z,1.00
2023-04-26T20:36:05.220Z,1.20
2023-04-26T20:38:32.173Z,1.02
2023-04-26T20:40:59.718Z,1.00
2023-04-26T20:43:26.652Z,1.00
2023-04-26T20:45:53.605Z,0.98
2023-04-26T20:48:20.914Z,1.05
2023-04-26T20:50:47.847Z,0.77
2023-04-26T20:53:14.752Z,0.95
2023-04-26T20:55:41.672Z,0.93
2023-04-26T20:58:08.616Z,0.90
2023-04-26T21:00:35.841Z,0.90
2023-04-26T21:03:03.005Z,0.70
2023-04-26T21:05:30.027Z,0.73
2023-04-26T21:07:56.938Z,0.68
2023-04-26T21:10:23.888Z,1.10
2023-04-26T21:12:51.264Z,1.05
2023-04-26T21:15:18.402Z,1.20
2023-04-26T21:17:45.525Z,1.20
2023-04-26T21:20:12.688Z,1.10
2023-04-26T21:22:39.610Z,1.08
2023-04-26T21:25:07.811Z,0.95
2023-04-26T21:27:35.517Z,0.90
2023-04-26T21:30:02.451Z,1.05
2023-04-26T21:32:29.430Z,1.00
2023-04-26T21:34:56.673Z,0.93
2023-04-26T21:37:24.189Z,0.90
2023-04-26T21:39:51.229Z,1.10
2023-04-26T21:42:18.287Z,1.05
2023-04-26T21:44:45.282Z,0.98
2023-04-26T21:47:12.243Z,0.82
2023-04-26T21:49:39.547Z,1.20
2023-04-26T21:52:06.535Z,1.20
2023-04-26T21:54:33.497Z,1.17
2023-04-26T21:57:00.422Z,1.17
2023-04-26T21:59:27.366Z,1.23
2023-04-26T22:01:54.310Z,1.00
2023-04-26T22:04:21.716Z,0.77
2023-04-26T22:06:49.914Z,0.63
2023-04-26T22:09:16.965Z,1.17
2023-04-26T22:11:43.932Z,0.85
2023-04-26T22:14:10.920Z,1.08
2023-04-26T22:16:37.974Z,0.68
2023-04-26T22:19:05.091Z,0.80
2023-04-26T22:21:32.235Z,0.90
2023-04-26T22:23:59.804Z,0.98
2023-04-26T22:26:26.783Z,0.98
2023-04-26T22:28:53.710Z,0.90
2023-04-26T22:31:20.717Z,1.17
2023-04-26T22:33:47.698Z,0.70
2023-04-26T22:36:14.633Z,0.95
2023-04-26T22:38:41.592Z,0.70
2023-04-26T22:41:08.642Z,1.05
2023-04-26T22:43:36.330Z,0.80
2023-04-26T22:46:03.317Z,1.15
2023-04-26T22:48:30.233Z,1.20
2023-04-26T22:50:57.503Z,1.23
2023-04-26T22:53:24.484Z,1.17
2023-04-26T22:55:51.825Z,1.23
2023-04-26T22:58:18.877Z,1.27
2023-04-26T23:00:45.918Z,1.45
2023-04-26T23:03:13.019Z,1.10
2023-04-26T23:05:40.188Z,1.05
2023-04-26T23:08:07.216Z,1.05
2023-04-26T23:10:34.134Z,1.13
2023-04-26T23:13:01.070Z,0.85
2023-04-26T23:15:27.991Z,1.05
2023-04-26T23:17:54.960Z,1.27
2023-04-26T23:20:22.671Z,1.10
2023-04-26T23:22:49.636Z,1.00
2023-04-26T23:25:16.677Z,1.50
2023-04-26T23:27:43.638Z,1.23
2023-04-26T23:30:11.279Z,1.38
2023-04-26T23:32:38.283Z,1.23
2023-04-26T23:35:06.470Z,1.30
2023-04-26T23:37:33.538Z,1.00
2023-04-26T23:40:00.550Z,1.52
2023-04-26T23:42:27.469Z,1.27
2023-04-26T23:44:54.391Z,1.00
2023-04-26T23:47:21.295Z,1.15
2023-04-26T23:49:48.254Z,1.10
2023-04-26T23:52:15.274Z,1.10
2023-04-26T23:54:42.222Z,1.00
2023-04-26T23:57:09.151Z,0.80
2023-04-26T23:59:36.083Z,1.05
